Time;durP1;ratioP1;P1;durP2;ratioP2;P2;SDS_P1;SDS_P2;PMS_P1;PMS_P2;Temp;Humidity;BMP_temperature;BMP_pressure;BME280_temperature;BME280_humidity;BME280_pressure;Samples;Min_cycle;Max_cycle;Signal;HPM_P1;HPM_P2
2023/12/14 00:00:59;;;;;;;17.48;11.85;;;;;;;;;;13108305;22;21101;-93
2023/12/14 00:06:01;;;;;;;17.40;11.97;;;;;;;;;;13106434;22;20383;-94
2023/12/14 00:11:06;;;;;;;17.63;13.13;;;;;;;;;;13109991;22;20359;-95
2023/12/14 00:16:10;;;;;;;16.03;12.33;;;;;;;;;;13131229;22;20359;-94
2023/12/14 00:21:12;;;;;;;18.30;12.32;;;;;;;;;;13086399;22;21251;-94
2023/12/14 00:26:17;;;;;;;16.80;12.73;;;;;;;;;;13112766;22;20387;-92
2023/12/14 00:31:19;;;;;;;16.17;12.13;;;;;;;;;;13115059;22;20860;-92
2023/12/14 00:36:21;;;;;;;15.73;12.20;;;;;;;;;;13113164;22;20356;-93
2023/12/14 00:41:25;;;;;;;18.23;12.82;;;;;;;;;;13145118;22;20351;-92
2023/12/14 00:46:28;;;;;;;20.00;13.00;;;;;;;;;;13125868;22;20695;-92
2023/12/14 00:51:30;;;;;;;17.08;12.30;;;;;;;;;;13122688;22;20360;-93
2023/12/14 00:56:34;;;;;;;18.65;12.70;;;;;;;;;;13115439;22;20888;-92
2023/12/14 01:01:36;;;;;;;19.60;13.60;;;;;;;;;;13135802;22;20409;-92
2023/12/14 01:06:38;;;;;;;20.40;14.20;;;;;;;;;;13114651;22;20383;-92
2023/12/14 01:11:42;;;;;;;19.42;14.38;;;;;;;;;;13113851;22;20363;-92
2023/12/14 01:16:45;;;;;;;20.27;14.13;;;;;;;;;;13087368;22;20367;-93
2023/12/14 01:21:47;;;;;;;20.27;14.93;;;;;;;;;;13135920;22;20367;-91
2023/12/14 01:26:51;;;;;;;23.73;16.10;;;;;;;;;;13114091;22;20936;-90
2023/12/14 01:31:53;;;;;;;20.83;15.32;;;;;;;;;;13135933;22;20878;-93
2023/12/14 01:36:55;;;;;;;22.33;14.50;;;;;;;;;;13113984;22;20428;-94
2023/12/14 01:41:59;;;;;;;19.20;14.15;;;;;;;;;;13135934;22;20359;-93
2023/12/14 01:47:02;;;;;;;17.75;13.75;;;;;;;;;;13114332;22;20436;-93
2023/12/14 01:52:04;;;;;;;18.23;13.80;;;;;;;;;;13135911;22;20432;-93
2023/12/14 01:57:08;;;;;;;20.27;13.30;;;;;;;;;;13135111;22;20897;-92
2023/12/14 02:02:10;;;;;;;17.83;13.90;;;;;;;;;;13112788;22;20848;-93
2023/12/14 02:07:13;;;;;;;19.23;13.90;;;;;;;;;;13112876;22;20379;-92
2023/12/14 02:12:17;;;;;;;19.48;14.68;;;;;;;;;;13112614;22;20360;-93
2023/12/14 02:17:19;;;;;;;17.33;12.75;;;;;;;;;;13111568;22;20367;-93
2023/12/14 02:22:21;;;;;;;17.88;12.48;;;;;;;;;;13112336;22;20367;-95
2023/12/14 02:27:25;;;;;;;17.48;12.27;;;;;;;;;;13112097;22;20452;-93
2023/12/14 02:32:27;;;;;;;16.75;11.68;;;;;;;;;;13112133;22;20417;-94
2023/12/14 02:37:30;;;;;;;13.25;10.45;;;;;;;;;;13112160;22;20409;-93
2023/12/14 02:42:34;;;;;;;18.17;11.57;;;;;;;;;;13112474;22;20429;-93
2023/12/14 02:47:36;;;;;;;16.75;11.45;;;;;;;;;;13113433;22;20379;-93
2023/12/14 02:52:39;;;;;;;16.27;11.70;;;;;;;;;;13119641;22;20381;-95
2023/12/14 02:57:42;;;;;;;16.73;11.73;;;;;;;;;;13144280;22;20360;-93
2023/12/14 03:02:45;;;;;;;15.30;11.07;;;;;;;;;;13122924;22;20371;-94
2023/12/14 03:07:47;;;;;;;16.55;11.93;;;;;;;;;;13119849;22;20375;-90
2023/12/14 03:12:51;;;;;;;13.37;10.37;;;;;;;;;;13112504;22;20367;-91
2023/12/14 03:17:54;;;;;;;12.35;9.85;;;;;;;;;;13111655;22;20405;-93
2023/12/14 03:22:56;;;;;;;14.02;10.27;;;;;;;;;;13112569;22;20422;-94
2023/12/14 03:28:00;;;;;;;16.33;10.88;;;;;;;;;;13112572;22;20440;-94
2023/12/14 03:33:02;;;;;;;15.18;9.75;;;;;;;;;;13112520;22;20355;-94
2023/12/14 03:38:05;;;;;;;12.77;10.05;;;;;;;;;;13112642;22;20371;-95
2023/12/14 03:43:08;;;;;;;14.65;9.95;;;;;;;;;;13111796;22;20444;-93
2023/12/14 03:48:11;;;;;;;12.43;9.98;;;;;;;;;;13112885;22;20359;-93
2023/12/14 03:53:13;;;;;;;14.23;9.98;;;;;;;;;;13112032;22;20372;-94
2023/12/14 03:58:17;;;;;;;13.17;9.23;;;;;;;;;;13112784;22;20413;-96
2023/12/14 04:03:19;;;;;;;13.52;9.75;;;;;;;;;;13112307;22;20416;-94
2023/12/14 04:08:22;;;;;;;14.03;10.30;;;;;;;;;;13112416;22;21152;-94
2023/12/14 04:13:26;;;;;;;12.02;9.70;;;;;;;;;;13111535;22;20409;-94
2023/12/14 04:18:28;;;;;;;12.30;9.75;;;;;;;;;;13134123;22;20728;-93
2023/12/14 04:23:30;;;;;;;11.77;9.15;;;;;;;;;;13110950;22;20398;-94
2023/12/14 04:28:34;;;;;;;11.20;9.00;;;;;;;;;;13112108;22;20689;-93
2023/12/14 04:33:36;;;;;;;15.02;9.43;;;;;;;;;;13111415;22;20403;-95
2023/12/14 04:38:39;;;;;;;11.37;9.07;;;;;;;;;;13111179;22;20836;-93
2023/12/14 04:43:43;;;;;;;11.38;9.57;;;;;;;;;;13114977;22;20409;-94
2023/12/14 04:48:45;;;;;;;12.47;10.13;;;;;;;;;;13137523;22;20452;-94
2023/12/14 04:53:47;;;;;;;11.95;9.82;;;;;;;;;;13134072;22;20463;-93
2023/12/14 04:58:51;;;;;;;14.50;10.20;;;;;;;;;;13111745;22;20359;-94
2023/12/14 05:03:53;;;;;;;16.27;9.73;;;;;;;;;;13111786;22;20438;-95
2023/12/14 05:08:57;;;;;;;15.70;10.90;;;;;;;;;;13115087;22;20359;-95
2023/12/14 05:14:01;;;;;;;11.75;10.27;;;;;;;;;;13114912;22;20363;-94
2023/12/14 05:19:03;;;;;;;15.20;11.25;;;;;;;;;;13113642;22;20827;-94
2023/12/14 05:24:06;;;;;;;14.32;11.38;;;;;;;;;;13136258;22;20454;-94
2023/12/14 05:29:10;;;;;;;12.83;10.47;;;;;;;;;;13114216;22;20867;-95
2023/12/14 05:34:13;;;;;;;14.95;10.35;;;;;;;;;;13136434;22;20360;-93
2023/12/14 05:39:15;;;;;;;13.85;10.65;;;;;;;;;;13115410;22;20359;-89
2023/12/14 05:44:19;;;;;;;14.30;11.18;;;;;;;;;;13114677;22;20379;-94
2023/12/14 05:49:21;;;;;;;14.02;11.07;;;;;;;;;;13136442;22;20835;-95
2023/12/14 05:54:23;;;;;;;15.80;11.80;;;;;;;;;;13113131;22;21076;-95
2023/12/14 05:59:27;;;;;;;13.73;11.10;;;;;;;;;;13115803;22;20360;-95
2023/12/14 06:04:30;;;;;;;13.87;11.63;;;;;;;;;;13138007;22;20412;-95
2023/12/14 06:09:33;;;;;;;12.88;11.48;;;;;;;;;;13114356;22;20368;-94
2023/12/14 06:14:37;;;;;;;13.65;12.05;;;;;;;;;;13110624;22;20364;-95
2023/12/14 06:19:40;;;;;;;14.37;11.33;;;;;;;;;;13111289;22;20408;-95
2023/12/14 06:24:42;;;;;;;13.05;11.18;;;;;;;;;;13135028;22;20912;-94
2023/12/14 06:29:46;;;;;;;13.73;11.73;;;;;;;;;;13110689;22;20352;-92
2023/12/14 06:34:48;;;;;;;14.45;12.10;;;;;;;;;;13111893;22;20396;-96
2023/12/14 06:39:51;;;;;;;12.18;10.82;;;;;;;;;;13112062;22;20355;-96
2023/12/14 06:44:54;;;;;;;11.80;10.48;;;;;;;;;;13118004;22;20431;-94
2023/12/14 06:49:57;;;;;;;13.38;11.23;;;;;;;;;;13012051;22;20406;-95
2023/12/14 07:00:15;;;;;;;14.52;12.05;;;;;;;;;;13028495;22;20604;-89
2023/12/14 07:05:18;;;;;;;14.05;12.10;;;;;;;;;;13153983;22;20502;-96
2023/12/14 07:10:24;;;;;;;17.48;13.73;;;;;;;;;;13152526;22;20364;-96
2023/12/14 07:15:28;;;;;;;16.00;13.15;;;;;;;;;;13181586;22;20398;-92
2023/12/14 07:31:33;;;;;;;28.27;19.05;;;;;;;;;;13008972;22;20364;-96
2023/12/14 07:36:37;;;;;;;20.73;15.02;;;;;;;;;;13165308;22;20461;-96
2023/12/14 07:41:39;;;;;;;17.60;14.02;;;;;;;;;;13155055;22;20431;-96
2023/12/14 07:46:43;;;;;;;29.90;19.03;;;;;;;;;;13121441;22;20376;-96
2023/12/14 07:51:46;;;;;;;35.08;21.95;;;;;;;;;;13127999;22;20455;-94
2023/12/14 07:56:48;;;;;;;24.50;16.75;;;;;;;;;;13144113;22;20405;-96
2023/12/14 08:01:52;;;;;;;23.05;16.33;;;;;;;;;;13119074;22;20893;-95
2023/12/14 08:06:57;;;;;;;24.75;17.05;;;;;;;;;;13124672;22;20378;-85
2023/12/14 08:11:59;;;;;;;23.08;17.30;;;;;;;;;;13128540;22;20394;-96
2023/12/14 08:17:03;;;;;;;20.10;15.88;;;;;;;;;;13126777;22;20368;-95
2023/12/14 08:22:07;;;;;;;23.25;15.80;;;;;;;;;;13123479;22;20848;-96
2023/12/14 08:27:09;;;;;;;19.70;16.17;;;;;;;;;;13119198;22;20448;-96
2023/12/14 08:32:13;;;;;;;21.08;17.33;;;;;;;;;;13135487;22;20437;-96
2023/12/14 08:37:16;;;;;;;25.45;17.23;;;;;;;;;;13126467;22;20439;-95
2023/12/14 08:42:18;;;;;;;22.77;16.47;;;;;;;;;;13139002;22;20383;-96
2023/12/14 08:47:23;;;;;;;22.08;15.55;;;;;;;;;;13144945;22;20375;-93
2023/12/14 08:52:26;;;;;;;45.07;24.63;;;;;;;;;;13181184;22;20355;-95
2023/12/14 11:43:06;;;;;;;21.30;14.70;;;;;;;;;;13075550;22;20371;-94
2023/12/14 11:48:12;;;;;;;20.40;12.73;;;;;;;;;;13146748;22;20408;-96
2023/12/14 11:53:15;;;;;;;24.60;17.10;;;;;;;;;;13147062;22;20415;-96
2023/12/14 11:58:19;;;;;;;21.42;15.02;;;;;;;;;;13146651;22;20392;-96
2023/12/14 12:03:24;;;;;;;19.67;12.73;;;;;;;;;;13165789;22;20352;-95
2023/12/14 12:08:26;;;;;;;16.67;11.38;;;;;;;;;;13143921;22;20375;-96
2023/12/14 12:13:31;;;;;;;16.77;11.70;;;;;;;;;;13151307;22;20375;-96
2023/12/14 16:04:29;;;;;;;21.63;11.70;;;;;;;;;;13104843;22;20375;-96
2023/12/14 16:09:34;;;;;;;32.83;18.90;;;;;;;;;;13144555;22;20367;-95
2023/12/14 16:14:37;;;;;;;34.38;19.05;;;;;;;;;;13149873;22;20368;-95
2023/12/14 16:19:41;;;;;;;23.83;13.25;;;;;;;;;;13164608;22;20803;-96
2023/12/14 18:09:19;;;;;;;63.22;31.40;;;;;;;;;;13069377;22;20385;-95
2023/12/14 18:14:23;;;;;;;78.10;33.38;;;;;;;;;;13091633;22;20391;-96
2023/12/14 18:30:30;;;;;;;35.33;18.20;;;;;;;;;;13029013;22;20729;-96
2023/12/14 18:35:33;;;;;;;22.27;11.55;;;;;;;;;;13113854;22;20361;-96
2023/12/14 18:40:35;;;;;;;26.63;13.33;;;;;;;;;;12908809;22;20384;-94
2023/12/14 18:45:39;;;;;;;28.80;16.13;;;;;;;;;;13111953;22;20423;-96
2023/12/14 18:50:42;;;;;;;86.45;38.88;;;;;;;;;;12964559;22;20396;-96
2023/12/14 19:00:57;;;;;;;86.10;37.25;;;;;;;;;;12951209;22;20427;-92
2023/12/14 19:06:07;;;;;;;53.07;23.97;;;;;;;;;;13111847;22;20379;-92
2023/12/14 19:11:15;;;;;;;34.90;17.42;;;;;;;;;;13106086;22;20371;-95
2023/12/14 21:06:23;;;;;;;25.90;14.00;;;;;;;;;;13050160;22;20392;-96
2023/12/14 21:11:28;;;;;;;31.07;16.50;;;;;;;;;;13055120;22;20506;-95
2023/12/14 21:16:30;;;;;;;24.27;14.65;;;;;;;;;;13097136;22;20468;-95
2023/12/14 21:21:34;;;;;;;23.33;15.45;;;;;;;;;;13102542;22;20397;-96
2023/12/14 21:27:43;;;;;;;22.53;14.20;;;;;;;;;;13118537;22;20474;-96
2023/12/14 21:32:00;;;;;;;21.25;15.02;;;;;;;;;;13127589;22;20428;-93
2023/12/14 21:37:04;;;;;;;22.00;14.70;;;;;;;;;;13128031;22;20382;-92
2023/12/14 21:42:14;;;;;;;25.27;15.75;;;;;;;;;;13091507;22;20436;-89
2023/12/14 21:47:21;;;;;;;28.10;17.65;;;;;;;;;;12948660;22;20416;-96
2023/12/14 21:52:27;;;;;;;25.92;16.48;;;;;;;;;;13158683;22;20368;-96
2023/12/14 21:57:30;;;;;;;24.70;15.80;;;;;;;;;;13161495;22;20367;-96
2023/12/14 22:02:33;;;;;;;27.75;19.25;;;;;;;;;;13156903;22;20367;-96
2023/12/14 22:07:37;;;;;;;21.95;15.02;;;;;;;;;;13156183;22;20367;-96
2023/12/14 22:12:39;;;;;;;22.23;15.48;;;;;;;;;;13144155;22;20400;-96
2023/12/14 22:17:42;;;;;;;21.52;15.00;;;;;;;;;;13143832;22;20360;-96
2023/12/14 22:22:46;;;;;;;22.42;15.30;;;;;;;;;;13143004;22;20366;-96
2023/12/14 22:27:49;;;;;;;21.58;14.93;;;;;;;;;;13142389;22;20414;-96
2023/12/14 22:32:51;;;;;;;19.30;15.13;;;;;;;;;;13136915;22;20369;-96
2023/12/14 22:37:55;;;;;;;22.23;16.40;;;;;;;;;;13126550;22;20410;-94
2023/12/14 22:42:57;;;;;;;22.00;16.40;;;;;;;;;;13129566;22;20432;-96
2023/12/14 22:48:00;;;;;;;22.92;16.33;;;;;;;;;;13153086;22;20436;-96
2023/12/14 22:53:03;;;;;;;24.23;16.77;;;;;;;;;;13130244;22;20439;-96
2023/12/14 22:58:06;;;;;;;27.83;19.83;;;;;;;;;;13130423;22;20464;-96
2023/12/14 23:03:08;;;;;;;25.47;18.00;;;;;;;;;;13129789;22;20468;-96
2023/12/14 23:08:12;;;;;;;24.75;17.73;;;;;;;;;;13162455;22;20397;-96
2023/12/14 23:13:14;;;;;;;22.27;16.60;;;;;;;;;;13168401;22;20534;-96
2023/12/14 23:18:20;;;;;;;21.33;16.43;;;;;;;;;;13129295;22;20446;-96
2023/12/14 23:23:24;;;;;;;24.25;17.55;;;;;;;;;;13104607;22;20439;-96
2023/12/14 23:28:27;;;;;;;25.75;17.38;;;;;;;;;;13104701;22;20462;-96
2023/12/14 23:33:30;;;;;;;22.95;16.83;;;;;;;;;;13127578;22;20413;-95
2023/12/14 23:38:35;;;;;;;23.85;17.50;;;;;;;;;;13104525;22;20455;-96
2023/12/14 23:43:38;;;;;;;24.67;17.73;;;;;;;;;;13105707;22;20478;-96
2023/12/14 23:59:44;;;;;;;24.73;17.60;;;;;;;;;;13005202;22;20433;-96
